createdAt,value
2018-04-11T00:00:53.909Z,15.37
2018-04-11T00:02:03.873Z,15.43
2018-04-11T00:03:13.577Z,15.35
2018-04-11T00:04:23.350Z,15.37
2018-04-11T00:05:33.346Z,15.39
2018-04-11T00:06:43.056Z,15.36
2018-04-11T00:07:53.047Z,15.23
2018-04-11T00:09:03.010Z,15.35
2018-04-11T00:10:13.000Z,15.26
2018-04-11T00:11:22.728Z,15.29
2018-04-11T00:12:32.702Z,15.19
2018-04-11T00:13:42.465Z,15.23
2018-04-11T00:14:52.437Z,15.25
2018-04-11T00:16:01.953Z,15.26
2018-04-11T00:17:11.932Z,15.26
2018-04-11T00:18:21.393Z,15.15
2018-04-11T00:19:31.097Z,15.15
2018-04-11T00:20:41.067Z,15.17
2018-04-11T00:21:50.771Z,15.15
2018-04-11T00:23:00.756Z,15.18
2018-04-11T00:24:10.480Z,15.08
2018-04-11T00:25:20.192Z,15.04
2018-04-11T00:26:30.163Z,14.99
2018-04-11T00:27:39.894Z,15.02
2018-04-11T00:28:49.872Z,14.99
2018-04-11T00:29:59.836Z,15.02
2018-04-11T00:31:09.550Z,14.99
2018-04-11T00:32:19.508Z,14.97
2018-04-11T00:33:29.212Z,14.99
2018-04-11T00:34:39.197Z,14.94
2018-04-11T00:35:49.200Z,14.87
2018-04-11T00:36:58.923Z,14.96
2018-04-11T00:38:08.900Z,14.94
2018-04-11T00:39:18.863Z,14.81
2018-04-11T00:40:28.838Z,14.9
2018-04-11T00:41:38.814Z,14.87
2018-04-11T00:42:48.775Z,14.92
2018-04-11T00:43:58.751Z,14.85
2018-04-11T00:45:08.466Z,14.87
2018-04-11T00:46:18.178Z,14.86
2018-04-11T00:47:28.207Z,14.85
2018-04-11T00:48:38.199Z,14.82
2018-04-11T00:49:48.240Z,14.79
2018-04-11T00:50:58.239Z,14.79
2018-04-11T00:52:08.225Z,14.79
2018-04-11T00:53:18.199Z,14.79
2018-04-11T00:54:28.163Z,14.77
2018-04-11T00:55:38.146Z,14.74
2018-04-11T00:56:48.113Z,14.78
2018-04-11T00:57:58.138Z,14.7
2018-04-11T00:59:08.114Z,14.7
2018-04-11T01:00:17.822Z,14.71
2018-04-11T01:01:27.537Z,14.71
2018-04-11T01:02:37.253Z,14.78
2018-04-11T01:03:47.525Z,14.74
2018-04-11T01:04:57.224Z,14.7
2018-04-11T01:06:06.937Z,14.63
2018-04-11T01:07:16.903Z,14.59
2018-04-11T01:08:26.359Z,14.63
2018-04-11T01:09:36.320Z,14.66
2018-04-11T01:10:46.303Z,14.66
2018-04-11T01:11:56.022Z,14.7
2018-04-11T01:13:06.008Z,14.61
2018-04-11T01:14:15.722Z,14.63
2018-04-11T01:15:25.699Z,14.62
2018-04-11T01:16:35.411Z,14.66
2018-04-11T01:17:45.369Z,14.61
2018-04-11T01:18:55.350Z,14.63
2018-04-11T01:20:05.329Z,14.66
2018-04-11T01:21:15.302Z,14.62
2018-04-11T01:22:25.123Z,14.59
2018-04-11T01:23:34.837Z,14.59
2018-04-11T01:24:45.104Z,14.67
2018-04-11T01:25:55.064Z,14.63
2018-04-11T01:27:05.034Z,14.62
2018-04-11T01:28:15.010Z,14.58
2018-04-11T01:29:24.745Z,14.49
2018-04-11T01:30:34.730Z,14.59
2018-04-11T01:31:44.191Z,14.62
2018-04-11T01:32:53.923Z,14.61
2018-04-11T01:34:03.890Z,14.53
2018-04-11T01:35:14.167Z,14.59
2018-04-11T01:36:24.127Z,14.53
2018-04-11T01:37:34.088Z,14.58
2018-04-11T01:38:43.540Z,14.56
2018-04-11T01:39:53.503Z,14.58
2018-04-11T01:41:03.205Z,14.52
2018-04-11T01:42:13.184Z,14.51
2018-04-11T01:43:22.901Z,14.49
2018-04-11T01:44:32.872Z,14.41
2018-04-11T01:45:42.844Z,14.51
2018-04-11T01:46:52.804Z,14.4
2018-04-11T01:48:02.252Z,14.43
2018-04-11T01:49:12.211Z,14.41
2018-04-11T01:50:21.924Z,14.41
2018-04-11T01:51:31.645Z,14.33
2018-04-11T01:52:41.602Z,14.36
2018-04-11T01:53:51.312Z,14.36
2018-04-11T01:55:01.278Z,14.3
2018-04-11T01:56:11.249Z,14.26
2018-04-11T01:57:21.211Z,14.22
2018-04-11T01:58:31.206Z,14.34
2018-04-11T01:59:41.174Z,14.28
2018-04-11T02:00:51.143Z,14.25
2018-04-11T02:02:01.106Z,14.25
2018-04-11T02:03:10.830Z,14.22
2018-04-11T02:04:20.553Z,14.26
2018-04-11T02:05:30.545Z,14.28
2018-04-11T02:06:40.254Z,14.18
2018-04-11T02:07:49.980Z,14.22
2018-04-11T02:08:59.945Z,14.18
2018-04-11T02:10:09.905Z,14.19
2018-04-11T02:11:19.617Z,14.28
2018-04-11T02:12:29.598Z,14.13
2018-04-11T02:13:39.576Z,14.16
2018-04-11T02:14:49.561Z,14.13
2018-04-11T02:15:59.265Z,14.12
2018-04-11T02:17:09.215Z,14.11
2018-04-11T02:18:18.928Z,14.13
2018-04-11T02:19:28.904Z,14.03
2018-04-11T02:20:38.880Z,14.11
2018-04-11T02:21:48.839Z,14.07
2018-04-11T02:22:58.554Z,14
2018-04-11T02:24:08.525Z,14.04
2018-04-11T02:25:18.239Z,14.03
2018-04-11T02:26:28.213Z,14.04
2018-04-11T02:27:38.175Z,14.03
2018-04-11T02:28:48.153Z,14.11
2018-04-11T02:29:58.126Z,14.01
2018-04-11T02:31:07.844Z,14.03
2018-04-11T02:32:17.819Z,14
2018-04-11T02:33:27.527Z,14.05
2018-04-11T02:34:37.246Z,14.05
2018-04-11T02:35:46.978Z,13.95
2018-04-11T02:36:56.966Z,13.94
2018-04-11T02:38:06.961Z,13.86
2018-04-11T02:39:16.939Z,13.89
2018-04-11T02:40:26.933Z,14
2018-04-11T02:41:36.645Z,13.91
2018-04-11T02:42:46.425Z,13.95
2018-04-11T02:43:55.888Z,13.91
2018-04-11T02:45:05.599Z,13.86
2018-04-11T02:46:15.584Z,13.85
2018-04-11T02:47:25.298Z,13.86
2018-04-11T02:48:35.566Z,13.87
2018-04-11T02:49:45.553Z,13.95
2018-04-11T02:50:55.539Z,13.78
2018-04-11T02:52:05.531Z,13.91
2018-04-11T02:53:15.525Z,13.85
2018-04-11T02:54:25.236Z,13.83
2018-04-11T02:55:35.234Z,13.91
2018-04-11T02:56:45.229Z,13.8
2018-04-11T02:57:54.944Z,13.78
2018-04-11T02:59:05.222Z,13.73
2018-04-11T03:00:15.197Z,13.78
2018-04-11T03:01:25.178Z,13.75
2018-04-11T03:02:35.168Z,13.75
2018-04-11T03:03:44.881Z,13.71
2018-04-11T03:04:54.583Z,13.65
2018-04-11T03:06:04.557Z,13.64
2018-04-11T03:07:14.271Z,13.73
2018-04-11T03:08:23.973Z,13.7
2018-04-11T03:09:33.956Z,13.73
2018-04-11T03:10:44.220Z,13.62
2018-04-11T03:11:54.191Z,13.67
2018-04-11T03:13:04.150Z,13.68
2018-04-11T03:14:14.120Z,13.65
2018-04-11T03:15:24.081Z,13.67
2018-04-11T03:16:34.040Z,13.57
2018-04-11T03:17:44.058Z,13.65
2018-04-11T03:18:54.024Z,13.67
2018-04-11T03:20:03.990Z,13.67
2018-04-11T03:21:13.697Z,13.6
2018-04-11T03:22:23.670Z,13.6
2018-04-11T03:23:33.631Z,13.62
2018-04-11T03:24:43.075Z,13.62
2018-04-11T03:25:52.788Z,13.61
2018-04-11T03:27:02.746Z,13.67
2018-04-11T03:28:12.710Z,13.61
2018-04-11T03:29:22.667Z,13.71
2018-04-11T03:30:32.647Z,13.64
2018-04-11T03:31:42.933Z,13.73
2018-04-11T03:32:52.914Z,13.68
2018-04-11T03:34:02.880Z,13.67
2018-04-11T03:35:12.586Z,13.67
2018-04-11T03:36:22.304Z,13.64
2018-04-11T03:37:32.273Z,13.54
2018-04-11T03:38:42.257Z,13.57
2018-04-11T03:39:52.326Z,13.58
2018-04-11T03:41:02.032Z,13.52
2018-04-11T03:42:12.031Z,13.46
2018-04-11T03:43:21.484Z,13.47
2018-04-11T03:44:31.489Z,13.42
2018-04-11T03:45:41.210Z,13.37
2018-04-11T03:46:50.916Z,13.39
2018-04-11T03:48:00.638Z,13.4
2018-04-11T03:49:10.605Z,13.43
2018-04-11T03:50:20.359Z,13.36
2018-04-11T03:51:30.321Z,13.24
2018-04-11T03:52:40.039Z,13.39
2018-04-11T03:53:50.082Z,13.33
2018-04-11T03:55:00.149Z,13.36
2018-04-11T03:56:10.115Z,13.36
2018-04-11T03:57:20.079Z,13.36
2018-04-11T03:58:30.124Z,13.37
2018-04-11T03:59:40.097Z,13.4
2018-04-11T04:00:50.093Z,13.33
2018-04-11T04:02:00.071Z,13.4
2018-04-11T04:03:10.048Z,13.33
2018-04-11T04:04:20.027Z,13.33
2018-04-11T04:05:29.741Z,13.4
2018-04-11T04:06:39.730Z,13.31
2018-04-11T04:07:49.679Z,13.4
2018-04-11T04:08:59.434Z,13.43
2018-04-11T04:10:09.399Z,13.39
2018-04-11T04:11:19.366Z,13.31
2018-04-11T04:12:29.335Z,13.33
2018-04-11T04:13:38.788Z,13.37
2018-04-11T04:14:48.604Z,13.39
2018-04-11T04:15:58.314Z,13.46
2018-04-11T04:17:08.059Z,13.45
2018-04-11T04:18:18.036Z,13.5
2018-04-11T04:19:27.748Z,13.43
2018-04-11T04:20:37.192Z,13.45
2018-04-11T04:21:47.151Z,13.42
2018-04-11T04:22:56.868Z,13.42
2018-04-11T04:24:06.842Z,13.42
2018-04-11T04:25:16.815Z,13.46
2018-04-11T04:26:26.544Z,13.42
2018-04-11T04:27:36.503Z,13.39
2018-04-11T04:28:46.471Z,13.27
2018-04-11T04:29:56.441Z,13.42
2018-04-11T04:31:06.408Z,13.43
2018-04-11T04:32:16.375Z,13.33
2018-04-11T04:33:26.340Z,13.31
2018-04-11T04:34:36.322Z,13.3
2018-04-11T04:35:46.290Z,13.28
2018-04-11T04:36:56.288Z,13.26
2018-04-11T04:38:06.267Z,13.39
2018-04-11T04:39:16.232Z,13.36
2018-04-11T04:40:25.939Z,13.4
2018-04-11T04:41:35.906Z,13.42
2018-04-11T04:42:45.891Z,13.26
2018-04-11T04:43:55.862Z,13.42
2018-04-11T04:45:05.837Z,13.31
2018-04-11T04:46:15.554Z,13.4
2018-04-11T04:47:25.283Z,13.31
2018-04-11T04:48:35.032Z,13.31
2018-04-11T04:49:45.006Z,13.39
2018-04-11T04:50:54.724Z,13.31
2018-04-11T04:52:04.695Z,13.28
2018-04-11T04:53:14.674Z,13.37
2018-04-11T04:54:24.641Z,13.4
2018-04-11T04:55:34.621Z,13.42
2018-04-11T04:56:44.586Z,13.3
2018-04-11T04:57:54.291Z,13.42
2018-04-11T04:59:04.254Z,13.33
2018-04-11T05:00:14.223Z,13.3
2018-04-11T05:01:23.932Z,13.21
2018-04-11T05:02:33.382Z,13.3
2018-04-11T05:03:43.089Z,13.28
2018-04-11T05:04:52.807Z,13.19
2018-04-11T05:06:02.263Z,13.2
2018-04-11T05:07:12.245Z,13.24
2018-04-11T05:08:22.222Z,13.2
2018-04-11T05:09:31.939Z,13.21
2018-04-11T05:10:41.688Z,13.12
2018-04-11T05:11:51.666Z,13.06
2018-04-11T05:13:01.381Z,13.11
2018-04-11T05:14:11.437Z,13.13
2018-04-11T05:15:21.553Z,13.05
2018-04-11T05:16:31.532Z,13.17
2018-04-11T05:17:41.517Z,13.17
2018-04-11T05:18:51.481Z,13.19
2018-04-11T05:20:01.492Z,13.2
2018-04-11T05:21:11.471Z,13.23
2018-04-11T05:22:21.194Z,13.23
2018-04-11T05:23:31.155Z,13.08
2018-04-11T05:24:41.121Z,13.12
2018-04-11T05:25:50.827Z,13.08
2018-04-11T05:27:00.800Z,13.02
2018-04-11T05:28:10.767Z,12.98
2018-04-11T05:29:20.530Z,12.91
2018-04-11T05:30:30.493Z,12.93
2018-04-11T05:31:40.486Z,12.87
2018-04-11T05:32:50.200Z,12.83
2018-04-11T05:33:59.929Z,12.73
2018-04-11T05:35:09.682Z,12.61
2018-04-11T05:36:19.699Z,12.51
2018-04-11T05:37:29.666Z,12.53
2018-04-11T05:38:39.647Z,12.53
2018-04-11T05:39:49.625Z,12.51
2018-04-11T05:40:59.348Z,12.5
2018-04-11T05:42:09.076Z,12.5
2018-04-11T05:43:19.040Z,12.43
2018-04-11T05:44:29.039Z,12.47
2018-04-11T05:45:38.501Z,12.39
2018-04-11T05:46:48.494Z,12.39
2018-04-11T05:47:58.545Z,12.45
2018-04-11T05:49:08.677Z,12.4
2018-04-11T05:50:18.391Z,12.45
2018-04-11T05:51:28.358Z,12.48
2018-04-11T05:52:38.338Z,12.51
2018-04-11T05:53:48.323Z,12.55
2018-04-11T05:54:58.118Z,12.47
2018-04-11T05:56:07.658Z,12.51
2018-04-11T05:57:17.726Z,12.66
2018-04-11T05:58:27.190Z,12.75
2018-04-11T05:59:36.669Z,12.72
2018-04-11T06:00:46.414Z,12.78
2018-04-11T06:01:56.502Z,12.86
2018-04-11T06:03:06.492Z,12.91
2018-04-11T06:04:16.498Z,12.86
2018-04-11T06:05:25.945Z,12.91
2018-04-11T06:06:35.919Z,13.05
2018-04-11T06:07:45.714Z,13.11
2018-04-11T06:08:55.448Z,13.06
2018-04-11T06:10:05.448Z,13.06
2018-04-11T06:11:15.171Z,13.11
2018-04-11T06:12:25.203Z,13.21
2018-04-11T06:13:35.202Z,13.24
2018-04-11T06:14:45.176Z,13.27
2018-04-11T06:15:55.163Z,13.21
2018-04-11T06:17:05.174Z,13.21
2018-04-11T06:18:14.887Z,13.36
2018-04-11T06:19:24.859Z,13.31
2018-04-11T06:20:34.833Z,13.23
2018-04-11T06:21:44.813Z,13.4
2018-04-11T06:22:54.645Z,13.37
2018-04-11T06:24:04.708Z,13.4
2018-04-11T06:25:14.710Z,13.42
2018-04-11T06:26:24.685Z,13.4
2018-04-11T06:27:34.684Z,13.33
2018-04-11T06:28:44.659Z,13.4
2018-04-11T06:29:54.109Z,13.39
2018-04-11T06:31:04.081Z,13.39
2018-04-11T06:32:13.540Z,13.42
2018-04-11T06:33:23.524Z,13.45
2018-04-11T06:34:33.530Z,13.4
2018-04-11T06:35:43.508Z,13.42
2018-04-11T06:36:53.237Z,13.42
2018-04-11T06:38:03.215Z,13.49
2018-04-11T06:39:13.198Z,13.43
2018-04-11T06:40:22.662Z,13.57
2018-04-11T06:41:32.657Z,13.52
2018-04-11T06:42:42.632Z,13.58
2018-04-11T06:43:52.595Z,13.65
2018-04-11T06:45:02.319Z,13.68
2018-04-11T06:46:12.410Z,13.67
2018-04-11T06:47:22.515Z,13.76
2018-04-11T06:48:32.573Z,13.71
2018-04-11T06:49:42.608Z,13.82
2018-04-11T06:50:52.583Z,13.8
2018-04-11T06:52:02.575Z,13.89
2018-04-11T06:53:12.304Z,13.89
2018-04-11T06:54:22.768Z,13.89
2018-04-11T06:55:32.300Z,13.91
2018-04-11T06:56:42.033Z,14.05
2018-04-11T06:57:52.033Z,13.97
2018-04-11T06:59:01.494Z,14
2018-04-11T07:00:11.481Z,14
2018-04-11T07:01:21.498Z,14.07
2018-04-11T07:02:31.485Z,14.07
2018-04-11T07:03:41.495Z,14.12
2018-04-11T07:04:51.234Z,14.18
2018-04-11T07:06:00.971Z,14.18
2018-04-11T07:07:10.978Z,14.3
2018-04-11T07:08:20.951Z,14.28
2018-04-11T07:09:30.677Z,14.22
2018-04-11T07:10:40.761Z,14.28
2018-04-11T07:11:50.750Z,14.45
2018-04-11T07:13:00.758Z,14.41
2018-04-11T07:14:10.898Z,14.38
2018-04-11T07:15:20.883Z,14.44
2018-04-11T07:16:30.864Z,14.49
2018-04-11T07:17:40.908Z,14.53
2018-04-11T07:18:50.887Z,14.55
2018-04-11T07:20:01.086Z,14.63
2018-04-11T07:21:11.092Z,14.62
2018-04-11T07:22:20.829Z,14.66
2018-04-11T07:23:30.821Z,14.68
2018-04-11T07:24:40.567Z,14.81
2018-04-11T07:25:50.062Z,14.82
2018-04-11T07:26:59.945Z,14.78
2018-04-11T07:28:09.678Z,14.89
2018-04-11T07:29:19.379Z,14.9
2018-04-11T07:30:29.359Z,14.97
2018-04-11T07:31:39.352Z,14.94
2018-04-11T07:32:48.945Z,14.99
2018-04-11T07:33:58.995Z,15.02
2018-04-11T07:35:08.987Z,15.11
2018-04-11T07:36:18.750Z,15.08
2018-04-11T07:37:28.729Z,15.18
2018-04-11T07:38:38.443Z,15.19
2018-04-11T07:39:48.439Z,15.15
2018-04-11T07:40:58.426Z,15.22
2018-04-11T07:42:08.410Z,15.17
2018-04-11T07:43:18.128Z,15.22
2018-04-11T07:44:28.360Z,15.22
2018-04-11T07:45:38.327Z,15.15
2018-04-11T07:46:48.295Z,15.27
2018-04-11T07:47:58.076Z,15.3
2018-04-11T07:49:07.792Z,15.35
2018-04-11T07:50:17.800Z,15.47
2018-04-11T07:51:27.785Z,15.39
2018-04-11T07:52:37.763Z,15.44
2018-04-11T07:53:47.751Z,15.54
2018-04-11T07:54:57.466Z,15.52
2018-04-11T07:56:07.448Z,15.54
2018-04-11T07:57:17.236Z,15.47
2018-04-11T07:58:27.228Z,15.51
2018-04-11T07:59:37.200Z,15.63
2018-04-11T08:00:47.187Z,15.59
2018-04-11T08:01:57.186Z,15.62
2018-04-11T08:03:06.982Z,15.78
2018-04-11T08:04:17.309Z,15.76
2018-04-11T08:05:27.296Z,15.78
2018-04-11T08:06:37.280Z,15.85
2018-04-11T08:07:47.475Z,15.91
2018-04-11T08:08:57.470Z,16.09
2018-04-11T08:10:07.693Z,15.98
2018-04-11T08:11:17.115Z,16.09
2018-04-11T08:12:26.848Z,16.12
2018-04-11T08:13:36.822Z,16.1
2018-04-11T08:14:46.823Z,16.22
2018-04-11T08:15:56.563Z,16.24
2018-04-11T08:17:06.287Z,16.34
2018-04-11T08:18:16.069Z,16.34
2018-04-11T08:19:26.105Z,16.39
2018-04-11T08:20:36.105Z,16.44
2018-04-11T08:21:46.098Z,16.5
2018-04-11T08:22:56.137Z,16.62
2018-04-11T08:24:06.134Z,16.58
2018-04-11T08:25:15.337Z,16.82
2018-04-11T08:26:25.063Z,16.98
2018-04-11T08:27:35.058Z,17.16
2018-04-11T08:28:45.054Z,17.44
2018-04-11T08:29:55.191Z,17.69
2018-04-11T08:31:05.247Z,17.82
2018-04-11T08:32:15.234Z,18.12
2018-04-11T08:33:25.214Z,18.27
2018-04-11T08:34:34.966Z,18.31
2018-04-11T08:35:44.971Z,18.42
2018-04-11T08:36:55.025Z,18.39
2018-04-11T08:38:05.021Z,18.52
2018-04-11T08:39:46.575Z,18.6
2018-04-11T08:40:56.595Z,18.76
2018-04-11T08:42:06.599Z,18.89
2018-04-11T08:43:16.585Z,19.08
2018-04-11T08:44:26.632Z,19.05
2018-04-11T08:45:36.673Z,19.22
2018-04-11T08:46:46.874Z,19.32
2018-04-11T08:47:56.872Z,19.45
2018-04-11T08:49:06.877Z,19.59
2018-04-11T08:50:16.879Z,19.66
2018-04-11T08:51:26.903Z,19.9
2018-04-11T08:52:37.015Z,20
2018-04-11T08:53:47.012Z,20.1
2018-04-11T08:54:57.027Z,19.96
2018-04-11T08:56:07.051Z,19.84
2018-04-11T08:57:17.089Z,19.89
2018-04-11T08:58:26.846Z,20
2018-04-11T08:59:36.607Z,19.96
2018-04-11T09:00:46.327Z,19.93
2018-04-11T09:01:56.095Z,20.14
2018-04-11T09:03:06.144Z,20.27
2018-04-11T09:04:16.157Z,20.39
2018-04-11T09:05:26.339Z,20.58
2018-04-11T09:06:36.700Z,20.46
2018-04-11T09:07:46.715Z,20.48
2018-04-11T09:08:56.446Z,20.37
2018-04-11T09:10:06.188Z,20.26
2018-04-11T09:11:16.168Z,20.26
2018-04-11T09:12:25.897Z,20.37
2018-04-11T09:13:35.363Z,20.5
2018-04-11T09:14:45.395Z,20.67
2018-04-11T09:15:55.402Z,20.77
2018-04-11T09:17:05.374Z,20.92
2018-04-11T09:18:15.359Z,20.64
2018-04-11T09:19:25.367Z,20.8
2018-04-11T09:20:35.367Z,21.04
2018-04-11T09:21:45.331Z,21.4
2018-04-11T09:22:54.776Z,21.23
2018-04-11T09:24:04.486Z,21.25
2018-04-11T09:25:14.474Z,21.33
2018-04-11T09:26:24.525Z,21.48
2018-04-11T09:27:34.505Z,21.6
2018-04-11T09:28:44.513Z,21.53
2018-04-11T09:29:54.000Z,21.58
2018-04-11T09:31:04.206Z,21.91
2018-04-11T09:32:14.213Z,21.99
2018-04-11T09:33:23.947Z,22.1
2018-04-11T09:34:33.712Z,22.44
2018-04-11T09:35:43.703Z,22.23
2018-04-11T09:36:53.450Z,22.22
2018-04-11T09:38:03.444Z,21.85
2018-04-11T09:39:13.444Z,21.7
2018-04-11T09:40:23.425Z,21.77
2018-04-11T09:41:33.172Z,22.1
2018-04-11T09:42:42.932Z,22.23
2018-04-11T09:43:52.945Z,22.47
2018-04-11T09:45:02.938Z,22.65
2018-04-11T09:46:12.928Z,22.89
2018-04-11T09:47:22.985Z,22.89
2018-04-11T09:48:32.991Z,23.06
2018-04-11T09:49:42.998Z,23.08
2018-04-11T09:50:52.993Z,23.2
2018-04-11T09:52:03.088Z,23.45
2018-04-11T09:53:13.075Z,23.64
2018-04-11T09:54:23.073Z,23.08
2018-04-11T09:55:32.817Z,22.84
2018-04-11T09:56:42.571Z,22.78
2018-04-11T09:57:52.560Z,22.67
2018-04-11T09:59:02.603Z,22.55
2018-04-11T10:00:12.612Z,22.59
2018-04-11T10:01:22.638Z,22.67
2018-04-11T10:02:32.680Z,22.52
2018-04-11T10:03:42.734Z,22.53
2018-04-11T10:04:52.729Z,22.38
2018-04-11T10:06:02.495Z,22.58
2018-04-11T10:07:12.568Z,22.41
2018-04-11T10:08:22.369Z,22.68
2018-04-11T10:09:32.125Z,22.78
2018-04-11T10:10:41.861Z,23.02
2018-04-11T10:11:51.620Z,23.04
2018-04-11T10:13:01.353Z,23.36
2018-04-11T10:14:11.094Z,23.47
2018-04-11T10:15:21.346Z,23.62
2018-04-11T10:16:31.115Z,23.74
2018-04-11T10:17:41.180Z,23.88
2018-04-11T10:18:51.173Z,23.81
2018-04-11T10:20:00.921Z,23.74
2018-04-11T10:21:10.743Z,23.74
2018-04-11T10:22:20.473Z,23.77
2018-04-11T10:23:29.444Z,23.88
2018-04-11T10:24:39.480Z,23.66
2018-04-11T10:25:49.472Z,23.28
2018-04-11T10:26:58.955Z,23.32
2018-04-11T10:28:08.941Z,22.99
2018-04-11T10:29:18.931Z,23.06
2018-04-11T10:30:28.926Z,23.08
2018-04-11T10:31:38.943Z,23.21
2018-04-11T10:32:48.984Z,23.44
2018-04-11T10:33:58.719Z,23.48
2018-04-11T10:35:08.713Z,23.48
2018-04-11T10:36:18.700Z,23.73
2018-04-11T10:37:28.703Z,23.56
2018-04-11T10:38:38.712Z,23.86
2018-04-11T10:39:49.030Z,24.01
2018-04-11T10:40:59.092Z,24.16
2018-04-11T10:42:08.840Z,24.21
2018-04-11T10:43:18.571Z,24.21
2018-04-11T10:44:28.568Z,24.25
2018-04-11T10:45:38.597Z,24.13
2018-04-11T10:46:48.583Z,24.34
2018-04-11T10:47:58.626Z,24.07
2018-04-11T10:49:08.380Z,24.24
2018-04-11T10:50:18.384Z,24.16
2018-04-11T10:51:28.108Z,23.84
2018-04-11T10:52:38.115Z,23.71
2018-04-11T10:53:48.169Z,24.06
2018-04-11T10:54:58.177Z,23.94
2018-04-11T10:56:07.663Z,23.47
2018-04-11T10:57:17.653Z,23.45
2018-04-11T10:58:27.397Z,23.59
2018-04-11T10:59:37.407Z,23.85
2018-04-11T11:00:47.446Z,23.95
2018-04-11T11:01:57.545Z,24.22
2018-04-11T11:03:07.281Z,24.46
2018-04-11T11:04:17.279Z,24.46
2018-04-11T11:05:27.001Z,24.66
2018-04-11T11:06:36.999Z,24.65
2018-04-11T11:07:46.974Z,24.71
2018-04-11T11:08:56.974Z,24.58
2018-04-11T11:10:07.051Z,24.48
2018-04-11T11:11:17.038Z,24.51
2018-04-11T11:12:27.059Z,24.63
2018-04-11T11:13:37.109Z,24.79
2018-04-11T11:14:47.139Z,24.74
2018-04-11T11:15:56.898Z,25.06
2018-04-11T11:17:06.914Z,25.07
2018-04-11T11:18:16.927Z,24.88
2018-04-11T11:19:26.922Z,24.71
2018-04-11T11:20:36.665Z,24.88
2018-04-11T11:21:46.641Z,24.93
2018-04-11T11:22:56.414Z,24.79
2018-04-11T11:24:06.418Z,24.75
2018-04-11T11:25:16.401Z,24.32
2018-04-11T11:26:26.121Z,24.29
2018-04-11T11:27:35.858Z,23.94
2018-04-11T11:28:45.836Z,23.96
2018-04-11T11:29:55.830Z,23.95
2018-04-11T11:31:05.863Z,23.64
2018-04-11T11:32:15.617Z,23.81
2018-04-11T11:33:25.595Z,23.7
2018-04-11T11:34:35.336Z,23.64
2018-04-11T11:35:45.340Z,23.04
2018-04-11T11:36:55.355Z,23.08
2018-04-11T11:38:05.322Z,23.02
2018-04-11T11:39:15.045Z,23.06
2018-04-11T11:40:25.028Z,23.37
2018-04-11T11:41:34.776Z,23.59
2018-04-11T11:42:44.758Z,23.42
2018-04-11T11:43:54.535Z,23.67
2018-04-11T11:45:04.317Z,23.95
2018-04-11T11:46:14.069Z,24
2018-04-11T11:47:24.098Z,24.22
2018-04-11T11:48:33.835Z,24.28
2018-04-11T11:49:43.838Z,24.46
2018-04-11T11:50:53.822Z,24.34
2018-04-11T11:52:03.621Z,24.68
2018-04-11T11:53:13.789Z,24.75
2018-04-11T11:54:23.779Z,24.5
2018-04-11T11:55:33.763Z,24.86
2018-04-11T11:56:43.755Z,24.78
2018-04-11T11:57:53.754Z,24.5
2018-04-11T11:59:03.766Z,24.5
2018-04-11T12:00:13.758Z,24.81
2018-04-11T12:01:23.745Z,24.88
2018-04-11T12:02:33.749Z,25.18
2018-04-11T12:03:43.718Z,25.54
2018-04-11T12:04:53.527Z,25.77
2018-04-11T12:06:03.610Z,26.01
2018-04-11T12:07:13.593Z,26.15
2018-04-11T12:08:23.569Z,26.34
2018-04-11T12:09:33.559Z,26.07
2018-04-11T12:10:43.549Z,25.91
2018-04-11T12:11:53.556Z,25.48
2018-04-11T12:13:03.620Z,25.62
2018-04-11T12:14:13.796Z,25.93
2018-04-11T12:15:23.799Z,25.74
2018-04-11T12:16:33.807Z,26.06
2018-04-11T12:17:43.825Z,26.53
2018-04-11T12:18:53.841Z,26.64
2018-04-11T12:20:03.580Z,27.08
2018-04-11T12:21:13.573Z,27.33
2018-04-11T12:22:23.309Z,27.13
2018-04-11T12:23:33.313Z,26.91
2018-04-11T12:24:43.316Z,26.89
2018-04-11T12:25:53.318Z,26.61
2018-04-11T12:27:03.296Z,26.49
2018-04-11T12:28:12.786Z,26.07
2018-04-11T12:29:22.784Z,26.13
2018-04-11T12:30:32.781Z,26.22
2018-04-11T12:31:42.769Z,26.03
2018-04-11T12:32:52.780Z,25.77
2018-04-11T12:34:02.774Z,25.49
2018-04-11T12:35:12.263Z,25.52
2018-04-11T12:36:22.039Z,25.68
2018-04-11T12:37:32.113Z,25.68
2018-04-11T12:38:42.098Z,25.73
2018-04-11T12:39:52.098Z,25.71
2018-04-11T12:41:02.030Z,25.81
2018-04-11T12:42:12.039Z,26.22
2018-04-11T12:43:22.036Z,26.08
2018-04-11T12:44:31.518Z,25.93
2018-04-11T12:45:41.537Z,25.71
2018-04-11T12:46:51.295Z,25.26
2018-04-11T12:48:00.496Z,24.97
2018-04-11T12:49:10.499Z,25.06
2018-04-11T12:50:20.280Z,25.22
2018-04-11T12:51:30.271Z,25.31
2018-04-11T12:52:40.015Z,25.01
2018-04-11T12:53:50.033Z,25.04
2018-04-11T12:54:59.759Z,24.93
2018-04-11T12:56:09.215Z,24.75
2018-04-11T12:57:19.207Z,24.62
2018-04-11T12:58:28.996Z,24.84
2018-04-11T12:59:39.072Z,24.89
2018-04-11T13:00:48.793Z,25.15
2018-04-11T13:01:58.800Z,25.29
2018-04-11T13:03:08.538Z,25.48
2018-04-11T13:04:18.254Z,24.78
2018-04-11T13:05:28.245Z,24.53
2018-04-11T13:06:38.246Z,24.65
2018-04-11T13:07:48.227Z,24.85
2018-04-11T13:08:58.213Z,24.5
2018-04-11T13:10:08.255Z,24.51
2018-04-11T13:11:18.248Z,24.24
2018-04-11T13:12:28.248Z,24.38
2018-04-11T13:13:38.004Z,24.48
2018-04-11T13:14:48.019Z,24.69
2018-04-11T13:15:58.036Z,24.89
2018-04-11T13:17:08.035Z,25.24
2018-04-11T13:18:17.928Z,25.55
2018-04-11T13:19:28.219Z,25.55
2018-04-11T13:20:38.227Z,25.31
2018-04-11T13:21:48.207Z,25.49
2018-04-11T13:22:57.925Z,25.34
2018-04-11T13:24:07.925Z,25.04
2018-04-11T13:25:17.909Z,25.06
2018-04-11T13:26:27.912Z,24.63
2018-04-11T13:27:37.898Z,24.24
2018-04-11T13:28:47.896Z,24.34
2018-04-11T13:29:57.868Z,24.62
2018-04-11T13:31:07.868Z,24.71
2018-04-11T13:32:17.598Z,24.68
2018-04-11T13:33:27.586Z,24.75
2018-04-11T13:34:37.321Z,24.77
2018-04-11T13:35:47.047Z,25.06
2018-04-11T13:36:57.065Z,24.84
2018-04-11T13:38:07.076Z,24.82
2018-04-11T13:39:16.793Z,24.74
2018-04-11T13:40:26.527Z,24.69
2018-04-11T13:41:36.258Z,24.55
2018-04-11T13:42:46.243Z,24.44
2018-04-11T13:43:56.232Z,24.01
2018-04-11T13:45:06.222Z,23.64
2018-04-11T13:46:16.266Z,23.34
2018-04-11T13:47:26.006Z,23.44
2018-04-11T13:48:36.004Z,23.49
2018-04-11T13:49:45.810Z,23.76
2018-04-11T13:50:56.026Z,23.85
2018-04-11T13:52:06.226Z,23.55
2018-04-11T13:53:16.219Z,23.59
2018-04-11T13:54:26.208Z,23.42
2018-04-11T13:55:36.208Z,23.44
2018-04-11T13:56:46.199Z,23.51
2018-04-11T13:57:56.248Z,23.62
2018-04-11T13:59:06.244Z,23.67
2018-04-11T14:00:16.225Z,23.92
2018-04-11T14:01:26.223Z,24.18
2018-04-11T14:02:36.287Z,24.37
2018-04-11T14:03:46.277Z,24.4
2018-04-11T14:04:56.318Z,24.5
2018-04-11T14:06:06.332Z,24.34
2018-04-11T14:07:16.350Z,23.96
2018-04-11T14:08:26.110Z,23.64
2018-04-11T14:09:36.098Z,23.77
2018-04-11T14:10:46.090Z,23.89
2018-04-11T14:11:55.560Z,23.64
2018-04-11T14:13:05.551Z,23.58
2018-04-11T14:14:15.548Z,23.92
2018-04-11T14:15:25.270Z,24.06
2018-04-11T14:16:34.998Z,24.22
2018-04-11T14:17:45.045Z,24.44
2018-04-11T14:18:55.048Z,24.66
2018-04-11T14:20:05.032Z,24.74
2018-04-11T14:21:15.012Z,24.88
2018-04-11T14:22:25.006Z,24.82
2018-04-11T14:23:34.740Z,24.74
2018-04-11T14:24:44.738Z,24.19
2018-04-11T14:25:54.769Z,23.71
2018-04-11T14:27:04.760Z,23.64
2018-04-11T14:28:14.495Z,23.58
2018-04-11T14:29:24.483Z,23.74
2018-04-11T14:30:34.203Z,24.04
2018-04-11T14:31:44.193Z,24.26
2018-04-11T14:32:53.663Z,24.26
2018-04-11T14:34:03.447Z,24.56
2018-04-11T14:35:13.480Z,24.53
2018-04-11T14:36:23.482Z,24.82
2018-04-11T14:37:33.225Z,24.75
2018-04-11T14:38:43.214Z,24.89
2018-04-11T14:39:53.173Z,24.85
2018-04-11T14:41:02.907Z,24.53
2018-04-11T14:42:12.909Z,24.14
2018-04-11T14:43:22.416Z,24.04
2018-04-11T14:44:32.443Z,24.03
2018-04-11T14:45:42.434Z,23.86
2018-04-11T14:46:52.180Z,23.79
2018-04-11T14:48:01.647Z,23.56
2018-04-11T14:49:11.640Z,23.58
2018-04-11T14:50:21.650Z,23.48
2018-04-11T14:51:31.628Z,23.44
2018-04-11T14:52:41.347Z,23.45
2018-04-11T14:53:51.332Z,23.56
2018-04-11T14:55:01.326Z,23.49
2018-04-11T14:56:11.047Z,23.33
2018-04-11T14:57:20.496Z,23.4
2018-04-11T14:58:30.486Z,23.45
2018-04-11T14:59:40.462Z,23.51
2018-04-11T15:00:50.463Z,23.37
2018-04-11T15:02:00.440Z,23.08
2018-04-11T15:03:10.169Z,22.99
2018-04-11T15:04:20.161Z,22.99